sensor_id;sensor_type;location;lat;lon;timestamp;pressure;altitude;pressure_sealevel;temperature;humidity
66703;BME280;60933;46.398;-63.798;2023-02-04T00:01:30;100026.94;;;-24.92;60.21
66703;BME280;60933;46.398;-63.798;2023-02-04T00:03:56;100025.91;;;-24.94;60.85
66703;BME280;60933;46.398;-63.798;2023-02-04T00:06:22;100035.41;;;-25.05;59.76
66703;BME280;60933;46.398;-63.798;2023-02-04T00:08:48;100057.78;;;-25.16;59.20
66703;BME280;60933;46.398;-63.798;2023-02-04T00:11:14;100034.53;;;-25.21;59.75
66703;BME280;60933;46.398;-63.798;2023-02-04T00:13:40;100027.28;;;-25.44;58.90
66703;BME280;60933;46.398;-63.798;2023-02-04T00:16:07;100034.44;;;-25.46;59.36
66703;BME280;60933;46.398;-63.798;2023-02-04T00:18:33;100077.59;;;-25.52;58.71
66703;BME280;60933;46.398;-63.798;2023-02-04T00:21:01;100041.91;;;-25.68;58.05
66703;BME280;60933;46.398;-63.798;2023-02-04T00:23:30;100046.28;;;-25.72;58.32
66703;BME280;60933;46.398;-63.798;2023-02-04T00:25:57;100115.72;;;-25.83;58.21
66703;BME280;60933;46.398;-63.798;2023-02-04T00:28:23;100099.72;;;-25.88;57.43
66703;BME280;60933;46.398;-63.798;2023-02-04T00:30:49;100057.56;;;-25.96;57.75
66703;BME280;60933;46.398;-63.798;2023-02-04T00:33:17;100083.44;;;-25.96;57.58
66703;BME280;60933;46.398;-63.798;2023-02-04T00:35:44;100054.25;;;-25.96;58.11
66703;BME280;60933;46.398;-63.798;2023-02-04T00:38:10;100052.72;;;-26.03;57.82
66703;BME280;60933;46.398;-63.798;2023-02-04T00:40:36;100070.16;;;-26.07;58.40
66703;BME280;60933;46.398;-63.798;2023-02-04T00:43:03;100045.97;;;-26.06;57.79
66703;BME280;60933;46.398;-63.798;2023-02-04T00:45:29;100055.78;;;-26.13;58.36
66703;BME280;60933;46.398;-63.798;2023-02-04T00:47:55;100047.06;;;-26.11;57.41
66703;BME280;60933;46.398;-63.798;2023-02-04T00:50:22;100045.16;;;-26.13;57.95
66703;BME280;60933;46.398;-63.798;2023-02-04T00:52:48;100077.72;;;-26.20;57.30
66703;BME280;60933;46.398;-63.798;2023-02-04T00:55:15;100081.38;;;-26.24;58.03
66703;BME280;60933;46.398;-63.798;2023-02-04T00:57:43;100055.53;;;-26.38;58.48
66703;BME280;60933;46.398;-63.798;2023-02-04T01:00:12;100057.97;;;-26.38;58.66
66703;BME280;60933;46.398;-63.798;2023-02-04T01:02:39;100055.16;;;-26.34;58.61
66703;BME280;60933;46.398;-63.798;2023-02-04T01:05:08;100043.72;;;-26.35;58.58
66703;BME280;60933;46.398;-63.798;2023-02-04T01:07:35;100067.00;;;-26.37;58.44
66703;BME280;60933;46.398;-63.798;2023-02-04T01:10:01;100068.25;;;-26.40;58.42
66703;BME280;60933;46.398;-63.798;2023-02-04T01:12:27;100035.63;;;-26.50;58.92
66703;BME280;60933;46.398;-63.798;2023-02-04T01:14:54;100033.03;;;-26.51;58.42
66703;BME280;60933;46.398;-63.798;2023-02-04T01:17:20;100050.38;;;-26.48;58.68
66703;BME280;60933;46.398;-63.798;2023-02-04T01:19:47;100066.34;;;-26.50;59.45
66703;BME280;60933;46.398;-63.798;2023-02-04T01:22:13;100100.06;;;-26.53;59.02
66703;BME280;60933;46.398;-63.798;2023-02-04T01:24:39;100063.63;;;-26.60;59.14
66703;BME280;60933;46.398;-63.798;2023-02-04T01:27:05;100092.09;;;-26.59;58.55
66703;BME280;60933;46.398;-63.798;2023-02-04T01:29:31;100058.94;;;-26.66;58.15
66703;BME280;60933;46.398;-63.798;2023-02-04T01:31:57;100084.81;;;-26.67;57.94
66703;BME280;60933;46.398;-63.798;2023-02-04T01:34:23;100112.09;;;-26.76;57.80
66703;BME280;60933;46.398;-63.798;2023-02-04T01:36:50;100099.94;;;-26.76;58.10
66703;BME280;60933;46.398;-63.798;2023-02-04T01:39:16;100103.28;;;-26.83;57.77
66703;BME280;60933;46.398;-63.798;2023-02-04T01:41:43;100123.56;;;-26.83;58.66
66703;BME280;60933;46.398;-63.798;2023-02-04T01:44:09;100098.59;;;-26.89;58.30
66703;BME280;60933;46.398;-63.798;2023-02-04T01:46:35;100108.31;;;-26.96;58.28
66703;BME280;60933;46.398;-63.798;2023-02-04T01:49:03;100146.31;;;-27.04;57.30
66703;BME280;60933;46.398;-63.798;2023-02-04T01:51:30;100124.97;;;-27.06;57.08
66703;BME280;60933;46.398;-63.798;2023-02-04T01:53:58;100140.44;;;-27.13;57.30
66703;BME280;60933;46.398;-63.798;2023-02-04T01:56:26;100101.59;;;-27.13;56.01
66703;BME280;60933;46.398;-63.798;2023-02-04T01:58:54;100106.97;;;-27.16;56.77
66703;BME280;60933;46.398;-63.798;2023-02-04T02:01:55;100140.06;;;-27.16;57.51
66703;BME280;60933;46.398;-63.798;2023-02-04T02:04:33;100146.31;;;-27.18;57.78
66703;BME280;60933;46.398;-63.798;2023-02-04T02:07:02;100153.25;;;-27.29;57.14
66703;BME280;60933;46.398;-63.798;2023-02-04T02:09:29;100189.16;;;-27.33;57.19
66703;BME280;60933;46.398;-63.798;2023-02-04T02:11:57;100113.56;;;-27.44;57.15
66703;BME280;60933;46.398;-63.798;2023-02-04T02:14:23;100177.19;;;-27.46;57.15
66703;BME280;60933;46.398;-63.798;2023-02-04T02:16:49;100143.53;;;-27.57;56.55
66703;BME280;60933;46.398;-63.798;2023-02-04T02:19:23;100132.44;;;-27.63;56.99
66703;BME280;60933;46.398;-63.798;2023-02-04T02:22:15;100134.53;;;-27.66;56.82
66703;BME280;60933;46.398;-63.798;2023-02-04T02:24:42;100161.53;;;-27.70;57.47
66703;BME280;60933;46.398;-63.798;2023-02-04T02:27:10;100152.00;;;-27.76;57.03
66703;BME280;60933;46.398;-63.798;2023-02-04T02:29:38;100117.69;;;-27.79;57.50
66703;BME280;60933;46.398;-63.798;2023-02-04T02:32:07;100163.56;;;-27.80;57.78
66703;BME280;60933;46.398;-63.798;2023-02-04T02:34:34;100156.13;;;-27.82;57.26
66703;BME280;60933;46.398;-63.798;2023-02-04T02:37:01;100143.63;;;-27.92;57.92
66703;BME280;60933;46.398;-63.798;2023-02-04T02:39:28;100154.72;;;-27.94;57.31
66703;BME280;60933;46.398;-63.798;2023-02-04T02:41:55;100173.25;;;-27.95;58.21
66703;BME280;60933;46.398;-63.798;2023-02-04T02:44:22;100159.75;;;-27.85;58.41
66703;BME280;60933;46.398;-63.798;2023-02-04T02:46:49;100163.94;;;-27.84;58.73
66703;BME280;60933;46.398;-63.798;2023-02-04T02:49:17;100180.19;;;-27.91;58.06
66703;BME280;60933;46.398;-63.798;2023-02-04T02:51:45;100152.09;;;-27.96;58.23
66703;BME280;60933;46.398;-63.798;2023-02-04T02:54:27;100147.94;;;-28.04;58.39
66703;BME280;60933;46.398;-63.798;2023-02-04T02:56:54;100147.59;;;-28.07;58.76
66703;BME280;60933;46.398;-63.798;2023-02-04T02:59:24;100153.13;;;-28.08;58.77
66703;BME280;60933;46.398;-63.798;2023-02-04T03:02:01;100150.03;;;-28.00;59.72
66703;BME280;60933;46.398;-63.798;2023-02-04T03:04:33;100150.19;;;-28.05;58.55
66703;BME280;60933;46.398;-63.798;2023-02-04T03:07:01;100191.59;;;-28.04;58.02
66703;BME280;60933;46.398;-63.798;2023-02-04T03:09:28;100187.25;;;-28.07;58.85
66703;BME280;60933;46.398;-63.798;2023-02-04T03:11:54;100199.53;;;-28.12;58.58
66703;BME280;60933;46.398;-63.798;2023-02-04T03:14:22;100197.09;;;-28.19;58.06
66703;BME280;60933;46.398;-63.798;2023-02-04T03:16:53;100176.47;;;-28.23;57.81
66703;BME280;60933;46.398;-63.798;2023-02-04T03:19:22;100192.03;;;-28.21;58.58
66703;BME280;60933;46.398;-63.798;2023-02-04T03:21:49;100206.03;;;-28.26;59.33
66703;BME280;60933;46.398;-63.798;2023-02-04T03:24:15;100216.78;;;-28.24;58.96
66703;BME280;60933;46.398;-63.798;2023-02-04T03:26:41;100189.44;;;-28.23;58.87
66703;BME280;60933;46.398;-63.798;2023-02-04T03:29:08;100162.91;;;-28.28;59.75
66703;BME280;60933;46.398;-63.798;2023-02-04T03:31:35;100171.78;;;-28.21;59.38
66703;BME280;60933;46.398;-63.798;2023-02-04T03:34:02;100181.31;;;-28.23;59.14
66703;BME280;60933;46.398;-63.798;2023-02-04T03:36:28;100210.72;;;-28.27;58.99
66703;BME280;60933;46.398;-63.798;2023-02-04T03:38:54;100216.75;;;-28.31;59.34
66703;BME280;60933;46.398;-63.798;2023-02-04T03:41:20;100219.13;;;-28.38;60.04
66703;BME280;60933;46.398;-63.798;2023-02-04T03:43:46;100204.13;;;-28.28;59.56
66703;BME280;60933;46.398;-63.798;2023-02-04T03:46:13;100239.63;;;-28.29;59.09
66703;BME280;60933;46.398;-63.798;2023-02-04T03:48:39;100187.25;;;-28.41;59.08
66703;BME280;60933;46.398;-63.798;2023-02-04T03:51:07;100204.63;;;-28.31;58.91
66703;BME280;60933;46.398;-63.798;2023-02-04T03:53:34;100182.13;;;-28.30;59.33
66703;BME280;60933;46.398;-63.798;2023-02-04T03:56:03;100213.47;;;-28.31;58.84
66703;BME280;60933;46.398;-63.798;2023-02-04T03:58:29;100169.97;;;-28.37;58.81
66703;BME280;60933;46.398;-63.798;2023-02-04T04:00:55;100215.34;;;-28.36;59.41
66703;BME280;60933;46.398;-63.798;2023-02-04T04:03:21;100202.03;;;-28.32;58.55
66703;BME280;60933;46.398;-63.798;2023-02-04T04:05:47;100225.75;;;-28.30;59.57
66703;BME280;60933;46.398;-63.798;2023-02-04T04:08:13;100191.84;;;-28.30;59.49
66703;BME280;60933;46.398;-63.798;2023-02-04T04:10:39;100217.69;;;-28.23;60.22
66703;BME280;60933;46.398;-63.798;2023-02-04T04:13:05;100183.03;;;-28.22;60.13
66703;BME280;60933;46.398;-63.798;2023-02-04T04:15:31;100222.88;;;-28.20;59.71
66703;BME280;60933;46.398;-63.798;2023-02-04T04:17:57;100221.25;;;-28.27;59.35
66703;BME280;60933;46.398;-63.798;2023-02-04T04:20:23;100253.81;;;-28.25;59.52
66703;BME280;60933;46.398;-63.798;2023-02-04T04:22:51;100201.16;;;-28.33;59.14
66703;BME280;60933;46.398;-63.798;2023-02-04T04:25:17;100180.88;;;-28.41;58.99
66703;BME280;60933;46.398;-63.798;2023-02-04T04:27:43;100189.38;;;-28.37;59.22
66703;BME280;60933;46.398;-63.798;2023-02-04T04:30:10;100190.94;;;-28.30;59.79
66703;BME280;60933;46.398;-63.798;2023-02-04T04:32:37;100196.63;;;-28.37;59.13
66703;BME280;60933;46.398;-63.798;2023-02-04T04:35:03;100184.53;;;-28.37;58.66
66703;BME280;60933;46.398;-63.798;2023-02-04T04:37:29;100175.34;;;-28.40;59.41
66703;BME280;60933;46.398;-63.798;2023-02-04T04:39:55;100177.44;;;-28.35;59.42
66703;BME280;60933;46.398;-63.798;2023-02-04T04:42:21;100151.03;;;-28.54;59.55
66703;BME280;60933;46.398;-63.798;2023-02-04T04:44:47;100195.28;;;-28.35;59.67
66703;BME280;60933;46.398;-63.798;2023-02-04T04:47:13;100173.47;;;-28.35;60.01
66703;BME280;60933;46.398;-63.798;2023-02-04T04:49:39;100183.28;;;-28.41;59.11
66703;BME280;60933;46.398;-63.798;2023-02-04T04:52:05;100171.34;;;-28.39;59.87
66703;BME280;60933;46.398;-63.798;2023-02-04T04:54:31;100175.19;;;-28.34;60.26
66703;BME280;60933;46.398;-63.798;2023-02-04T04:56:57;100191.44;;;-28.33;60.58
66703;BME280;60933;46.398;-63.798;2023-02-04T04:59:23;100167.72;;;-28.35;60.12
66703;BME280;60933;46.398;-63.798;2023-02-04T05:01:49;100171.19;;;-28.41;59.74
66703;BME280;60933;46.398;-63.798;2023-02-04T05:04:15;100178.22;;;-28.49;59.87
66703;BME280;60933;46.398;-63.798;2023-02-04T05:06:41;100167.53;;;-28.44;59.49
66703;BME280;60933;46.398;-63.798;2023-02-04T05:09:07;100226.41;;;-28.38;60.13
66703;BME280;60933;46.398;-63.798;2023-02-04T05:11:34;100237.47;;;-28.40;59.94
66703;BME280;60933;46.398;-63.798;2023-02-04T05:14:00;100213.91;;;-28.41;59.42
66703;BME280;60933;46.398;-63.798;2023-02-04T05:16:26;100194.69;;;-28.47;59.70
66703;BME280;60933;46.398;-63.798;2023-02-04T05:18:52;100259.38;;;-28.46;60.01
66703;BME280;60933;46.398;-63.798;2023-02-04T05:21:18;100197.97;;;-28.46;59.55
66703;BME280;60933;46.398;-63.798;2023-02-04T05:23:44;100216.63;;;-28.52;59.50
66703;BME280;60933;46.398;-63.798;2023-02-04T05:26:10;100227.16;;;-28.52;59.21
66703;BME280;60933;46.398;-63.798;2023-02-04T05:28:36;100183.06;;;-28.49;59.63
66703;BME280;60933;46.398;-63.798;2023-02-04T05:31:02;100193.47;;;-28.50;59.50
66703;BME280;60933;46.398;-63.798;2023-02-04T05:33:28;100207.78;;;-28.52;58.68
66703;BME280;60933;46.398;-63.798;2023-02-04T05:35:54;100196.00;;;-28.56;58.79
66703;BME280;60933;46.398;-63.798;2023-02-04T05:38:20;100186.81;;;-28.59;58.66
66703;BME280;60933;46.398;-63.798;2023-02-04T05:40:46;100204.81;;;-28.57;58.84
66703;BME280;60933;46.398;-63.798;2023-02-04T05:43:12;100202.22;;;-28.58;58.68
66703;BME280;60933;46.398;-63.798;2023-02-04T05:45:38;100180.25;;;-28.60;58.02
66703;BME280;60933;46.398;-63.798;2023-02-04T05:48:04;100163.47;;;-28.58;58.03
66703;BME280;60933;46.398;-63.798;2023-02-04T05:50:30;100198.19;;;-28.65;58.18
66703;BME280;60933;46.398;-63.798;2023-02-04T05:52:56;100194.91;;;-28.65;57.83
66703;BME280;60933;46.398;-63.798;2023-02-04T05:55:22;100178.81;;;-28.65;58.26
66703;BME280;60933;46.398;-63.798;2023-02-04T05:57:48;100185.03;;;-28.67;58.70
66703;BME280;60933;46.398;-63.798;2023-02-04T06:00:14;100215.06;;;-28.79;58.40
66703;BME280;60933;46.398;-63.798;2023-02-04T06:02:40;100189.81;;;-28.81;58.50
66703;BME280;60933;46.398;-63.798;2023-02-04T06:05:07;100239.28;;;-28.79;58.22
66703;BME280;60933;46.398;-63.798;2023-02-04T06:07:33;100196.28;;;-28.95;57.77
66703;BME280;60933;46.398;-63.798;2023-02-04T06:09:59;100203.63;;;-28.80;58.86
66703;BME280;60933;46.398;-63.798;2023-02-04T06:12:25;100246.38;;;-28.81;58.43
66703;BME280;60933;46.398;-63.798;2023-02-04T06:14:51;100183.41;;;-28.81;58.66
66703;BME280;60933;46.398;-63.798;2023-02-04T06:17:17;100232.34;;;-28.83;58.76
66703;BME280;60933;46.398;-63.798;2023-02-04T06:19:44;100240.66;;;-28.81;58.26
66703;BME280;60933;46.398;-63.798;2023-02-04T06:22:10;100241.34;;;-28.82;58.13
66703;BME280;60933;46.398;-63.798;2023-02-04T06:24:36;100219.00;;;-28.87;58.46
66703;BME280;60933;46.398;-63.798;2023-02-04T06:27:02;100210.16;;;-28.87;58.16
66703;BME280;60933;46.398;-63.798;2023-02-04T06:29:28;100224.91;;;-28.85;58.43
66703;BME280;60933;46.398;-63.798;2023-02-04T06:31:54;100215.22;;;-28.85;58.15
66703;BME280;60933;46.398;-63.798;2023-02-04T06:34:20;100214.34;;;-28.85;58.69
66703;BME280;60933;46.398;-63.798;2023-02-04T06:36:46;100228.00;;;-28.86;57.83
66703;BME280;60933;46.398;-63.798;2023-02-04T06:39:12;100258.97;;;-28.83;57.40
66703;BME280;60933;46.398;-63.798;2023-02-04T06:41:38;100237.19;;;-28.83;58.50
66703;BME280;60933;46.398;-63.798;2023-02-04T06:44:04;100206.06;;;-28.80;57.59
66703;BME280;60933;46.398;-63.798;2023-02-04T06:46:30;100240.97;;;-28.85;57.58
66703;BME280;60933;46.398;-63.798;2023-02-04T06:48:56;100243.22;;;-28.87;57.38
66703;BME280;60933;46.398;-63.798;2023-02-04T06:51:22;100258.91;;;-28.91;56.81
66703;BME280;60933;46.398;-63.798;2023-02-04T06:53:48;100281.78;;;-28.89;57.20
66703;BME280;60933;46.398;-63.798;2023-02-04T06:56:14;100205.66;;;-28.91;57.41
66703;BME280;60933;46.398;-63.798;2023-02-04T06:58:40;100220.25;;;-28.83;56.88
66703;BME280;60933;46.398;-63.798;2023-02-04T07:01:06;100246.50;;;-28.87;56.57
66703;BME280;60933;46.398;-63.798;2023-02-04T07:03:32;100243.38;;;-28.85;57.05
66703;BME280;60933;46.398;-63.798;2023-02-04T07:05:58;100256.84;;;-28.88;57.77
66703;BME280;60933;46.398;-63.798;2023-02-04T07:08:24;100242.53;;;-28.86;57.41
66703;BME280;60933;46.398;-63.798;2023-02-04T07:10:50;100232.84;;;-28.86;57.94
66703;BME280;60933;46.398;-63.798;2023-02-04T07:13:16;100243.56;;;-28.84;57.54
66703;BME280;60933;46.398;-63.798;2023-02-04T07:15:42;100240.28;;;-28.84;57.61
66703;BME280;60933;46.398;-63.798;2023-02-04T07:18:08;100245.00;;;-28.79;56.99
66703;BME280;60933;46.398;-63.798;2023-02-04T07:20:34;100239.28;;;-28.79;57.49
66703;BME280;60933;46.398;-63.798;2023-02-04T07:23:00;100249.97;;;-28.84;56.73
66703;BME280;60933;46.398;-63.798;2023-02-04T07:25:27;100244.97;;;-28.86;56.78
66703;BME280;60933;46.398;-63.798;2023-02-04T07:27:53;100243.78;;;-28.82;57.25
66703;BME280;60933;46.398;-63.798;2023-02-04T07:30:20;100224.91;;;-28.85;56.98
66703;BME280;60933;46.398;-63.798;2023-02-04T07:32:46;100234.38;;;-28.87;56.88
66703;BME280;60933;46.398;-63.798;2023-02-04T07:35:13;100226.63;;;-28.84;57.05
66703;BME280;60933;46.398;-63.798;2023-02-04T07:37:39;100216.06;;;-28.84;57.42
66703;BME280;60933;46.398;-63.798;2023-02-04T07:40:05;100253.47;;;-28.82;57.30
66703;BME280;60933;46.398;-63.798;2023-02-04T07:42:31;100238.94;;;-28.82;57.33
66703;BME280;60933;46.398;-63.798;2023-02-04T07:44:57;100259.34;;;-28.80;57.45
66703;BME280;60933;46.398;-63.798;2023-02-04T07:47:23;100232.34;;;-28.83;56.74
66703;BME280;60933;46.398;-63.798;2023-02-04T07:49:49;100237.53;;;-28.80;57.22
66703;BME280;60933;46.398;-63.798;2023-02-04T07:52:15;100241.03;;;-28.78;56.79
66703;BME280;60933;46.398;-63.798;2023-02-04T07:54:41;100250.22;;;-28.76;56.65
66703;BME280;60933;46.398;-63.798;2023-02-04T07:57:07;100216.81;;;-28.78;56.86
66703;BME280;60933;46.398;-63.798;2023-02-04T07:59:33;100233.06;;;-28.77;56.88
66703;BME280;60933;46.398;-63.798;2023-02-04T08:01:59;100220.69;;;-28.73;56.74
66703;BME280;60933;46.398;-63.798;2023-02-04T08:04:26;100265.25;;;-28.78;56.33
66703;BME280;60933;46.398;-63.798;2023-02-04T08:06:52;100200.69;;;-28.85;56.57
66703;BME280;60933;46.398;-63.798;2023-02-04T08:09:18;100200.06;;;-28.77;55.84
66703;BME280;60933;46.398;-63.798;2023-02-04T08:11:44;100229.25;;;-28.82;55.71
66703;BME280;60933;46.398;-63.798;2023-02-04T08:14:10;100245.50;;;-28.81;55.50
66703;BME280;60933;46.398;-63.798;2023-02-04T08:16:37;100213.22;;;-28.95;55.76
66703;BME280;60933;46.398;-63.798;2023-02-04T08:19:03;100199.50;;;-28.81;56.10
66703;BME280;60933;46.398;-63.798;2023-02-04T08:21:32;100217.13;;;-28.82;55.83
66703;BME280;60933;46.398;-63.798;2023-02-04T08:23:58;100221.47;;;-28.80;56.61
66703;BME280;60933;46.398;-63.798;2023-02-04T08:26:24;100244.13;;;-28.79;56.20
66703;BME280;60933;46.398;-63.798;2023-02-04T08:28:50;100184.41;;;-28.86;56.00
66703;BME280;60933;46.398;-63.798;2023-02-04T08:31:16;100183.75;;;-28.85;56.41
66703;BME280;60933;46.398;-63.798;2023-02-04T08:33:42;100205.03;;;-28.82;56.87
66703;BME280;60933;46.398;-63.798;2023-02-04T08:36:08;100223.91;;;-28.80;56.97
66703;BME280;60933;46.398;-63.798;2023-02-04T08:38:34;100171.84;;;-28.76;56.30
66703;BME280;60933;46.398;-63.798;2023-02-04T08:41:00;100197.13;;;-28.74;57.19
66703;BME280;60933;46.398;-63.798;2023-02-04T08:43:27;100190.25;;;-28.91;57.14
66703;BME280;60933;46.398;-63.798;2023-02-04T08:45:53;100323.06;;;-28.74;56.47
66703;BME280;60933;46.398;-63.798;2023-02-04T08:48:19;100211.97;;;-28.78;56.28
66703;BME280;60933;46.398;-63.798;2023-02-04T08:50:45;100229.66;;;-28.72;57.02
66703;BME280;60933;46.398;-63.798;2023-02-04T08:53:11;100248.00;;;-28.74;56.05
66703;BME280;60933;46.398;-63.798;2023-02-04T08:55:37;100218.72;;;-28.76;55.79
66703;BME280;60933;46.398;-63.798;2023-02-04T08:58:03;100272.84;;;-28.82;55.23
66703;BME280;60933;46.398;-63.798;2023-02-04T09:00:29;100216.88;;;-28.91;56.15
66703;BME280;60933;46.398;-63.798;2023-02-04T09:02:55;100250.84;;;-28.84;55.63
66703;BME280;60933;46.398;-63.798;2023-02-04T09:05:21;100224.41;;;-28.82;56.51
66703;BME280;60933;46.398;-63.798;2023-02-04T09:07:47;100200.38;;;-28.81;57.13
66703;BME280;60933;46.398;-63.798;2023-02-04T09:10:13;100237.91;;;-28.77;56.70
66703;BME280;60933;46.398;-63.798;2023-02-04T09:12:39;100251.22;;;-28.81;56.38
66703;BME280;60933;46.398;-63.798;2023-02-04T09:15:09;100253.13;;;-28.78;56.98
66703;BME280;60933;46.398;-63.798;2023-02-04T09:17:35;100243.44;;;-28.78;56.92
66703;BME280;60933;46.398;-63.798;2023-02-04T09:20:02;100269.16;;;-28.86;56.88
66703;BME280;60933;46.398;-63.798;2023-02-04T09:22:28;100253.34;;;-28.77;57.03
66703;BME280;60933;46.398;-63.798;2023-02-04T09:24:54;100244.50;;;-28.76;56.55
66703;BME280;60933;46.398;-63.798;2023-02-04T09:27:20;100225.31;;;-28.75;56.68
66703;BME280;60933;46.398;-63.798;2023-02-04T09:29:47;100268.22;;;-28.74;56.70
66703;BME280;60933;46.398;-63.798;2023-02-04T09:32:13;100229.97;;;-28.76;56.48
66703;BME280;60933;46.398;-63.798;2023-02-04T09:34:39;100255.06;;;-28.76;56.55
66703;BME280;60933;46.398;-63.798;2023-02-04T09:37:05;100239.28;;;-28.79;56.28
66703;BME280;60933;46.398;-63.798;2023-02-04T09:39:31;100245.50;;;-28.81;56.44
66703;BME280;60933;46.398;-63.798;2023-02-04T09:41:57;100237.53;;;-28.80;56.18
66703;BME280;60933;46.398;-63.798;2023-02-04T09:44:25;100231.00;;;-28.81;55.63
66703;BME280;60933;46.398;-63.798;2023-02-04T09:46:55;100248.28;;;-28.78;55.86
66703;BME280;60933;46.398;-63.798;2023-02-04T09:49:22;100246.25;;;-28.75;55.81
66703;BME280;60933;46.398;-63.798;2023-02-04T09:51:48;100287.03;;;-28.78;55.56
66703;BME280;60933;46.398;-63.798;2023-02-04T09:54:20;100235.13;;;-28.80;56.49
66703;BME280;60933;46.398;-63.798;2023-02-04T09:56:46;100262.66;;;-28.80;56.08
66703;BME280;60933;46.398;-63.798;2023-02-04T09:59:15;100245.50;;;-28.81;55.89
66703;BME280;60933;46.398;-63.798;2023-02-04T10:01:42;100255.06;;;-28.76;55.85
66703;BME280;60933;46.398;-63.798;2023-02-04T10:04:13;100236.91;;;-28.72;56.21
66703;BME280;60933;46.398;-63.798;2023-02-04T10:06:41;100251.59;;;-28.78;55.83
66703;BME280;60933;46.398;-63.798;2023-02-04T10:09:11;100281.50;;;-28.77;56.15
66703;BME280;60933;46.398;-63.798;2023-02-04T10:11:40;100273.19;;;-28.79;56.34
66703;BME280;60933;46.398;-63.798;2023-02-04T10:14:19;100278.41;;;-28.76;56.63
66703;BME280;60933;46.398;-63.798;2023-02-04T10:16:54;100275.31;;;-28.75;56.80
66703;BME280;60933;46.398;-63.798;2023-02-04T10:19:22;100240.34;;;-28.77;56.37
66703;BME280;60933;46.398;-63.798;2023-02-04T10:21:48;100250.72;;;-28.78;56.26
66703;BME280;60933;46.398;-63.798;2023-02-04T10:24:24;100259.72;;;-28.77;56.19
66703;BME280;60933;46.398;-63.798;2023-02-04T10:26:52;100226.81;;;-28.82;56.44
66703;BME280;60933;46.398;-63.798;2023-02-04T10:29:20;100239.66;;;-28.76;56.29
66703;BME280;60933;46.398;-63.798;2023-02-04T10:31:49;100251.78;;;-28.76;56.47
66703;BME280;60933;46.398;-63.798;2023-02-04T10:34:22;100252.84;;;-28.74;56.73
66703;BME280;60933;46.398;-63.798;2023-02-04T10:36:53;100270.47;;;-28.75;56.92
66703;BME280;60933;46.398;-63.798;2023-02-04T10:39:23;100271.72;;;-28.72;57.32
66703;BME280;60933;46.398;-63.798;2023-02-04T10:41:51;100227.72;;;-28.75;56.94
66703;BME280;60933;46.398;-63.798;2023-02-04T10:44:23;100238.00;;;-28.63;57.43
66703;BME280;60933;46.398;-63.798;2023-02-04T10:47:17;100234.16;;;-28.68;57.72
66703;BME280;60933;46.398;-63.798;2023-02-04T10:50:13;100246.97;;;-28.69;57.45
66703;BME280;60933;46.398;-63.798;2023-02-04T10:52:43;100253.75;;;-28.59;57.54
66703;BME280;60933;46.398;-63.798;2023-02-04T10:55:15;100259.00;;;-28.56;57.16
66703;BME280;60933;46.398;-63.798;2023-02-04T10:57:44;100253.41;;;-28.62;57.13
66703;BME280;60933;46.398;-63.798;2023-02-04T11:00:19;100258.59;;;-28.59;57.25
66703;BME280;60933;46.398;-63.798;2023-02-04T11:03:06;100245.94;;;-28.64;57.21
66703;BME280;60933;46.398;-63.798;2023-02-04T11:05:35;100238.19;;;-28.61;57.21
66703;BME280;60933;46.398;-63.798;2023-02-04T11:08:03;100229.66;;;-28.65;57.93
66703;BME280;60933;46.398;-63.798;2023-02-04T11:10:43;100233.88;;;-28.57;57.82
66703;BME280;60933;46.398;-63.798;2023-02-04T11:13:22;100246.75;;;-28.50;57.27
66703;BME280;60933;46.398;-63.798;2023-02-04T11:15:50;100253.63;;;-28.53;57.78
66703;BME280;60933;46.398;-63.798;2023-02-04T11:20:46;100246.03;;;-28.49;57.82
66703;BME280;60933;46.398;-63.798;2023-02-04T11:23:29;100250.59;;;-28.45;57.61
66703;BME280;60933;46.398;-63.798;2023-02-04T11:26:13;100271.88;;;-28.43;58.24
66703;BME280;60933;46.398;-63.798;2023-02-04T11:36:34;100267.25;;;-28.34;57.79
66703;BME280;60933;46.398;-63.798;2023-02-04T11:39:15;100248.94;;;-28.32;57.29
66703;BME280;60933;46.398;-63.798;2023-02-04T11:41:44;100288.38;;;-28.33;57.15
66703;BME280;60933;46.398;-63.798;2023-02-04T11:44:12;100283.38;;;-28.34;57.03
66703;BME280;60933;46.398;-63.798;2023-02-04T11:46:39;100327.56;;;-28.30;57.19
66703;BME280;60933;46.398;-63.798;2023-02-04T11:49:14;100305.72;;;-28.30;57.64
66703;BME280;60933;46.398;-63.798;2023-02-04T11:51:42;100283.03;;;-28.30;57.75
66703;BME280;60933;46.398;-63.798;2023-02-04T11:54:11;100326.19;;;-28.28;57.58
66703;BME280;60933;46.398;-63.798;2023-02-04T11:56:37;100354.38;;;-28.28;56.76
66703;BME280;60933;46.398;-63.798;2023-02-04T11:59:03;100327.56;;;-28.30;57.11
66703;BME280;60933;46.398;-63.798;2023-02-04T12:01:32;100323.44;;;-28.24;56.95
66703;BME280;60933;46.398;-63.798;2023-02-04T12:04:00;100321.91;;;-28.23;57.63
66703;BME280;60933;46.398;-63.798;2023-02-04T12:06:33;100300.94;;;-28.23;57.87
66703;BME280;60933;46.398;-63.798;2023-02-04T12:09:19;100316.72;;;-28.19;57.74
66703;BME280;60933;46.398;-63.798;2023-02-04T12:12:01;100375.81;;;-28.11;57.43
66703;BME280;60933;46.398;-63.798;2023-02-04T12:14:33;100342.06;;;-28.10;57.88
66703;BME280;60933;46.398;-63.798;2023-02-04T12:17:16;100326.13;;;-28.08;57.87
66703;BME280;60933;46.398;-63.798;2023-02-04T12:19:43;100317.84;;;-28.02;57.72
66703;BME280;60933;46.398;-63.798;2023-02-04T12:22:09;100344.84;;;-27.99;58.17
66703;BME280;60933;46.398;-63.798;2023-02-04T12:24:35;100308.00;;;-27.97;57.14
66703;BME280;60933;46.398;-63.798;2023-02-04T12:27:04;100336.72;;;-28.00;57.56
66703;BME280;60933;46.398;-63.798;2023-02-04T12:29:30;100311.16;;;-27.91;58.02
66703;BME280;60933;46.398;-63.798;2023-02-04T12:31:56;100349.44;;;-27.88;58.03
66703;BME280;60933;46.398;-63.798;2023-02-04T12:34:22;100350.34;;;-27.80;58.23